X  Cerrar Datos meteorológicos de aviación METAR     LYNI Nis Airport
Temperatura
54°F Temperatura
36°F Punto de rocío
51% Humedad



Viento
2 MPH
3 KM/H
1 M/S
2 NUDO



Calma
N
Condiciones actuales

Claro Claro
Presión 1009.82 (hPa) - 29.82 (inHg)
Visibilidad 6 (milla) - 9.7 (km)
Aeropuerto
Código de aeropuerto LYNI

localidad: Nis Airport
Distancia: 63 (mi)

Metar:
LYNI 202000Z VRB02KT CAVOK 12/02 Q1010 NOSIG

Hora: 20-04-2024 22:00 CEST